Time;durP1;ratioP1;P1;durP2;ratioP2;P2;SDS_P1;SDS_P2;PMS_P1;PMS_P2;Temp;Humidity;BMP_temperature;BMP_pressure;BME280_temperature;BME280_humidity;BME280_pressure;Samples;Min_cycle;Max_cycle;Signal;HPM_P1;HPM_P2
2024/01/06 00:01:58;;;;;;;;;;;;;;;8.39;64.83;98641.78;4326852;33;33617;-82
2024/01/06 00:04:27;;;;;;;;;;;;;;;8.45;63.95;98640.84;4330722;33;32751;-83
2024/01/06 00:07:03;;;;;;;;;;;;;;;8.19;64.99;98638.75;4331794;33;34093;-82
2024/01/06 00:09:33;;;;;;;;;;;;;;;8.37;64.15;98645.28;4345770;33;34037;-82
2024/01/06 00:12:02;;;;;;;;;;;;;;;7.46;66.88;98631.53;4331398;33;33957;-82
2024/01/06 00:14:34;;;;;;;;;;;;;;;7.75;66.57;98628.41;4330979;33;32977;-82
2024/01/06 00:17:03;;;;;;;;;;;;;;;7.76;66.32;98631.88;4332071;33;34163;-82
2024/01/06 00:19:35;;;;;;;;;;;;;;;7.67;66.30;98618.25;4340344;33;33534;-82
2024/01/06 00:22:06;;;;;;;;;;;;;;;7.59;66.56;98622.72;4344942;33;34549;-83
2024/01/06 00:24:35;;;;;;;;;;;;;;;8.02;64.83;98621.91;4333186;33;33024;-82
2024/01/06 00:27:07;;;;;;;;;;;;;;;8.00;64.46;98617.66;4331124;33;34566;-83
2024/01/06 00:29:35;;;;;;;;;;;;;;;7.90;65.25;98617.81;4331989;33;34135;-83
2024/01/06 00:32:07;;;;;;;;;;;;;;;8.02;64.23;98623.59;4334670;33;34067;-83
2024/01/06 00:34:38;;;;;;;;;;;;;;;7.98;64.81;98619.41;4331661;33;31857;-83
2024/01/06 00:37:08;;;;;;;;;;;;;;;7.88;65.11;98618.72;4342906;33;33501;-82
2024/01/06 00:39:40;;;;;;;;;;;;;;;8.06;64.66;98610.59;4328705;33;34285;-83
2024/01/06 00:42:09;;;;;;;;;;;;;;;7.69;65.75;98608.75;4340051;33;34330;-83
2024/01/06 00:44:38;;;;;;;;;;;;;;;7.74;65.95;98615.56;4344191;33;34151;-83
2024/01/06 00:47:11;;;;;;;;;;;;;;;8.19;64.31;98607.75;4332954;33;33611;-82
2024/01/06 00:49:46;;;;;;;;;;;;;;;7.72;65.80;98601.81;4338210;33;34568;-83
2024/01/06 00:52:16;;;;;;;;;;;;;;;7.99;65.38;98593.53;4333213;33;34831;-83
2024/01/06 00:54:46;;;;;;;;;;;;;;;7.38;67.44;98607.59;4331861;33;33928;-82
2024/01/06 00:57:15;;;;;;;;;;;;;;;7.08;68.75;98593.50;4336612;33;33510;-82
2024/01/06 00:59:44;;;;;;;;;;;;;;;7.39;68.17;98598.97;4338939;33;34734;-83
2024/01/06 01:02:13;;;;;;;;;;;;;;;7.66;66.85;98608.81;4337660;33;33844;-83
2024/01/06 01:04:49;;;;;;;;;;;;;;;8.18;64.93;98612.09;4330041;33;32919;-83
2024/01/06 01:07:19;;;;;;;;;;;;;;;7.72;66.17;98615.56;4337103;33;33275;-82
2024/01/06 01:09:50;;;;;;;;;;;;;;;6.66;70.50;98607.03;4337032;33;34289;-82
2024/01/06 01:12:19;;;;;;;;;;;;;;;7.59;67.77;98612.38;4334535;33;34307;-83
2024/01/06 01:14:48;;;;;;;;;;;;;;;7.09;69.42;98598.63;4338139;33;33112;-83
2024/01/06 01:17:17;;;;;;;;;;;;;;;7.50;68.25;98601.38;4337404;33;33489;-83
2024/01/06 01:20:04;;;;;;;;;;;;;;;8.01;66.17;98609.84;4333848;33;34331;-83
2024/01/06 01:22:38;;;;;;;;;;;;;;;8.02;66.30;98606.41;4339136;33;34570;-83
2024/01/06 01:25:08;;;;;;;;;;;;;;;8.05;66.21;98608.91;4334773;33;33135;-82
2024/01/06 01:27:37;;;;;;;;;;;;;;;8.10;66.54;98608.81;4341182;33;33417;-83
2024/01/06 01:30:06;;;;;;;;;;;;;;;8.08;66.29;98605.41;4331865;33;34091;-83
2024/01/06 01:32:35;;;;;;;;;;;;;;;7.93;67.52;98600.56;4335186;33;33886;-83
2024/01/06 01:35:08;;;;;;;;;;;;;;;7.77;67.96;98600.00;4332949;33;33561;-83
2024/01/06 01:37:43;;;;;;;;;;;;;;;7.39;69.06;98596.41;4326324;33;34312;-83
2024/01/06 01:40:12;;;;;;;;;;;;;;;7.67;69.23;98597.59;4334924;33;34872;-83
2024/01/06 01:42:41;;;;;;;;;;;;;;;7.91;68.10;98592.84;4337866;33;33839;-83
2024/01/06 01:45:10;;;;;;;;;;;;;;;7.30;70.22;98581.06;4326893;33;32947;-83
2024/01/06 01:47:45;;;;;;;;;;;;;;;6.96;72.43;98589.38;4328130;33;34025;-83
2024/01/06 01:50:14;;;;;;;;;;;;;;;7.82;68.79;98586.13;4337152;33;34164;-83
2024/01/06 01:52:44;;;;;;;;;;;;;;;7.73;69.48;98580.28;4334750;33;33816;-83
2024/01/06 01:55:12;;;;;;;;;;;;;;;7.79;69.09;98573.28;4331404;33;32745;-83
2024/01/06 01:57:46;;;;;;;;;;;;;;;7.81;68.91;98568.94;4338382;33;33566;-83
2024/01/06 02:00:15;;;;;;;;;;;;;;;7.94;68.67;98566.94;4334347;33;33954;-83
2024/01/06 02:02:46;;;;;;;;;;;;;;;8.20;67.79;98568.97;4331546;33;34091;-83
2024/01/06 02:05:14;;;;;;;;;;;;;;;8.18;68.05;98564.72;4334951;33;33449;-82
2024/01/06 02:07:52;;;;;;;;;;;;;;;8.06;68.46;98563.25;4339000;33;33557;-83
2024/01/06 02:10:20;;;;;;;;;;;;;;;7.94;68.50;98561.78;4336817;33;34703;-82
2024/01/06 02:12:51;;;;;;;;;;;;;;;7.96;69.10;98564.34;4331342;33;32763;-82
2024/01/06 02:15:20;;;;;;;;;;;;;;;8.05;68.50;98551.25;4335355;33;33271;-83
2024/01/06 02:17:48;;;;;;;;;;;;;;;8.20;67.83;98553.47;4336959;33;34398;-82
2024/01/06 02:20:23;;;;;;;;;;;;;;;8.11;68.64;98559.69;4337147;33;34914;-83
2024/01/06 02:22:53;;;;;;;;;;;;;;;8.17;68.39;98555.31;4335950;33;32510;-82
2024/01/06 02:25:21;;;;;;;;;;;;;;;7.96;68.79;98557.44;4337518;33;34248;-83
2024/01/06 02:27:50;;;;;;;;;;;;;;;7.63;70.53;98552.06;4338288;33;33975;-83
2024/01/06 02:30:22;;;;;;;;;;;;;;;8.09;68.68;98542.53;4336203;33;34897;-82
2024/01/06 02:32:51;;;;;;;;;;;;;;;8.06;68.75;98540.84;4330028;33;34143;-83
2024/01/06 02:35:21;;;;;;;;;;;;;;;7.69;70.96;98545.94;4337992;33;33779;-83
2024/01/06 02:37:50;;;;;;;;;;;;;;;7.73;70.26;98544.13;4331109;33;34689;-83
2024/01/06 02:40:28;;;;;;;;;;;;;;;7.39;71.54;98544.78;4337831;33;34061;-83
2024/01/06 02:42:58;;;;;;;;;;;;;;;7.84;70.00;98537.87;4328712;33;34448;-83
2024/01/06 02:45:26;;;;;;;;;;;;;;;7.94;69.59;98535.97;4334106;33;33249;-82
2024/01/06 02:48:00;;;;;;;;;;;;;;;7.86;70.06;98530.97;4339253;33;33986;-82
2024/01/06 02:50:29;;;;;;;;;;;;;;;7.52;71.72;98523.06;4340666;33;34071;-83
2024/01/06 02:52:57;;;;;;;;;;;;;;;7.10;73.04;98527.28;4345838;33;33488;-82
2024/01/06 02:55:29;;;;;;;;;;;;;;;7.33;72.18;98526.88;4340293;33;32500;-82
2024/01/06 02:58:04;;;;;;;;;;;;;;;7.28;73.06;98526.94;4338875;33;33510;-82
2024/01/06 03:00:32;;;;;;;;;;;;;;;7.12;73.40;98523.78;4339273;33;33789;-82
2024/01/06 03:03:04;;;;;;;;;;;;;;;6.93;74.19;98520.66;4344803;33;34912;-83
2024/01/06 03:05:32;;;;;;;;;;;;;;;7.09;73.83;98518.69;4329800;33;33243;-83
2024/01/06 03:08:02;;;;;;;;;;;;;;;7.04;74.52;98511.03;4329439;33;33670;-83
2024/01/06 03:10:36;;;;;;;;;;;;;;;7.42;72.42;98498.31;4325883;33;34154;-83
2024/01/06 03:13:07;;;;;;;;;;;;;;;7.14;73.61;98496.25;4325506;33;35029;-83
2024/01/06 03:15:36;;;;;;;;;;;;;;;7.16;73.71;98484.16;4331637;33;33044;-82
2024/01/06 03:18:08;;;;;;;;;;;;;;;7.15;73.52;98481.59;4328816;33;33791;-83
2024/01/06 03:20:37;;;;;;;;;;;;;;;7.30;73.14;98485.63;4336694;33;33923;-82
2024/01/06 03:23:05;;;;;;;;;;;;;;;7.93;70.58;98480.03;4340208;33;34180;-83
2024/01/06 03:25:44;;;;;;;;;;;;;;;7.73;71.23;98484.75;4346984;33;34124;-83
2024/01/06 03:28:18;;;;;;;;;;;;;;;8.11;69.69;98482.19;4346593;33;33557;-82
2024/01/06 03:33:21;;;;;;;;;;;;;;;7.22;73.34;98488.34;4332056;33;34561;-82
2024/01/06 03:35:55;;;;;;;;;;;;;;;7.48;72.61;98490.44;4331301;33;33765;-84
2024/01/06 03:38:24;;;;;;;;;;;;;;;7.06;73.83;98492.97;4334410;33;34226;-83
2024/01/06 03:40:56;;;;;;;;;;;;;;;7.53;72.71;98486.03;4334428;33;34610;-83
2024/01/06 03:43:25;;;;;;;;;;;;;;;7.76;71.47;98487.31;4326372;33;34239;-82
2024/01/06 03:45:55;;;;;;;;;;;;;;;7.91;71.12;98497.28;4333416;33;33600;-83
2024/01/06 03:48:23;;;;;;;;;;;;;;;7.53;72.26;98503.25;4341187;33;33828;-83
2024/01/06 03:50:58;;;;;;;;;;;;;;;8.08;70.08;98505.53;4342843;33;35181;-83
2024/01/06 03:53:27;;;;;;;;;;;;;;;8.07;69.80;98516.75;4340683;33;34355;-83
2024/01/06 03:56:01;;;;;;;;;;;;;;;8.55;67.81;98510.50;4334413;33;33046;-83
2024/01/06 03:58:29;;;;;;;;;;;;;;;8.41;68.20;98533.22;4326585;33;34421;-83
2024/01/06 04:00:58;;;;;;;;;;;;;;;8.39;68.49;98543.59;4335059;33;33770;-82
2024/01/06 04:03:28;;;;;;;;;;;;;;;8.59;67.85;98531.97;4341118;33;33401;-83
2024/01/06 04:05:58;;;;;;;;;;;;;;;7.73;71.55;98516.59;4341165;33;34339;-83
2024/01/06 04:08:27;;;;;;;;;;;;;;;8.33;69.56;98512.72;4341154;33;33660;-83
2024/01/06 04:10:57;;;;;;;;;;;;;;;8.34;69.64;98506.69;4333200;33;35113;-83
2024/01/06 04:13:26;;;;;;;;;;;;;;;7.91;71.15;98511.06;4331844;33;33894;-83
2024/01/06 04:15:54;;;;;;;;;;;;;;;8.19;70.89;98525.97;4336016;33;34223;-83
2024/01/06 04:18:32;;;;;;;;;;;;;;;8.49;69.50;98537.34;4330702;33;34311;-83
2024/01/06 04:21:04;;;;;;;;;;;;;;;8.16;70.72;98540.66;4330714;33;33733;-83
2024/01/06 04:23:33;;;;;;;;;;;;;;;8.12;71.12;98538.16;4335539;32;34323;-84
2024/01/06 04:26:06;;;;;;;;;;;;;;;8.06;71.82;98540.84;4341916;33;34409;-84
2024/01/06 04:28:35;;;;;;;;;;;;;;;8.19;71.32;98533.72;4352052;32;34695;-84
2024/01/06 04:31:10;;;;;;;;;;;;;;;8.08;72.20;98522.75;4335244;32;34875;-84
2024/01/06 04:33:40;;;;;;;;;;;;;;;8.18;71.81;98533.72;4325978;33;35087;-85
2024/01/06 04:36:10;;;;;;;;;;;;;;;7.82;73.58;98531.06;4333181;33;34062;-86
2024/01/06 04:38:39;;;;;;;;;;;;;;;7.18;77.85;98533.16;4341949;33;34633;-85
2024/01/06 04:41:17;;;;;;;;;;;;;;;6.92;79.37;98521.56;4340963;33;34352;-85
2024/01/06 04:43:45;;;;;;;;;;;;;;;6.82;79.81;98525.19;4338248;33;34916;-85
2024/01/06 04:46:14;;;;;;;;;;;;;;;7.15;78.40;98525.44;4342321;33;33982;-85
2024/01/06 04:48:43;;;;;;;;;;;;;;;7.46;76.78;98530.91;4342237;33;34288;-85
2024/01/06 04:51:13;;;;;;;;;;;;;;;7.16;78.87;98520.28;4340819;33;34260;-87
2024/01/06 04:53:42;;;;;;;;;;;;;;;6.89;80.28;98519.03;4334193;32;33870;-86
2024/01/06 04:56:12;;;;;;;;;;;;;;;6.88;80.53;98513.91;4339837;33;33436;-85
2024/01/06 04:58:45;;;;;;;;;;;;;;;7.01;79.79;98518.84;4340523;33;34287;-86
2024/01/06 05:01:13;;;;;;;;;;;;;;;7.07;79.94;98515.28;4341071;33;34245;-85
2024/01/06 05:03:48;;;;;;;;;;;;;;;7.73;77.27;98516.59;4330321;33;35092;-86
2024/01/06 05:06:22;;;;;;;;;;;;;;;7.53;77.28;98506.66;4340731;33;33654;-86
2024/01/06 05:08:51;;;;;;;;;;;;;;;7.32;79.66;98501.94;4333857;33;33490;-88
2024/01/06 05:11:24;;;;;;;;;;;;;;;7.13;79.66;98504.88;4341629;33;34202;-87
2024/01/06 05:13:53;;;;;;;;;;;;;;;6.88;81.69;98495.84;4337851;33;34173;-86
2024/01/06 05:16:22;;;;;;;;;;;;;;;7.41;79.64;98491.44;4343226;33;33619;-86
2024/01/06 05:18:50;;;;;;;;;;;;;;;7.66;78.45;98490.06;4329540;33;34413;-86
2024/01/06 05:21:21;;;;;;;;;;;;;;;7.87;77.00;98493.06;4336884;33;33704;-86
2024/01/06 05:23:50;;;;;;;;;;;;;;;7.26;79.87;98498.59;4336095;33;33905;-87
2024/01/06 05:26:25;;;;;;;;;;;;;;;7.79;77.48;98493.25;4341463;33;32998;-87
2024/01/06 05:28:53;;;;;;;;;;;;;;;7.69;77.82;98491.75;4340928;33;34750;-88
2024/01/06 05:31:28;;;;;;;;;;;;;;;7.99;76.60;98495.38;4334129;33;34160;-87
2024/01/06 05:33:57;;;;;;;;;;;;;;;7.78;77.57;98494.13;4334471;33;34717;-87
2024/01/06 05:36:26;;;;;;;;;;;;;;;7.59;78.64;98513.47;4340573;33;34171;-87
2024/01/06 05:38:55;;;;;;;;;;;;;;;7.79;77.63;98516.47;4338731;33;34520;-86
2024/01/06 05:41:23;;;;;;;;;;;;;;;8.14;76.35;98512.28;4325636;33;34111;-86
2024/01/06 05:43:57;;;;;;;;;;;;;;;8.12;76.65;98514.06;4334359;33;34457;-86
2024/01/06 05:46:26;;;;;;;;;;;;;;;7.81;78.05;98521.63;4342902;33;34729;-86
2024/01/06 05:48:59;;;;;;;;;;;;;;;7.97;77.20;98520.38;4339432;33;34278;-86
2024/01/06 05:51:28;;;;;;;;;;;;;;;7.69;78.00;98533.03;4328008;33;33440;-86
2024/01/06 05:54:00;;;;;;;;;;;;;;;8.34;75.69;98537.69;4333237;33;34612;-86
2024/01/06 05:56:34;;;;;;;;;;;;;;;7.73;77.71;98538.97;4331381;33;34677;-85
2024/01/06 05:59:04;;;;;;;;;;;;;;;7.41;79.81;98530.97;4330679;33;33813;-86
2024/01/06 06:01:34;;;;;;;;;;;;;;;7.54;80.08;98528.16;4325246;33;33922;-86
2024/01/06 06:04:03;;;;;;;;;;;;;;;7.83;77.92;98528.44;4326147;33;34112;-87
2024/01/06 06:06:32;;;;;;;;;;;;;;;7.87;78.41;98516.31;4343261;33;33136;-86
2024/01/06 06:09:06;;;;;;;;;;;;;;;7.65;79.15;98519.31;4335206;33;34598;-86
2024/01/06 06:11:35;;;;;;;;;;;;;;;7.87;78.52;98513.72;4339049;33;35529;-86
2024/01/06 06:14:06;;;;;;;;;;;;;;;7.82;78.61;98508.66;4328770;33;33509;-86
2024/01/06 06:16:34;;;;;;;;;;;;;;;7.48;80.95;98506.75;4326762;33;33957;-87
2024/01/06 06:19:06;;;;;;;;;;;;;;;7.53;80.01;98511.00;4331120;33;34463;-87
2024/01/06 06:21:40;;;;;;;;;;;;;;;7.93;78.16;98521.34;4325199;33;33839;-86
2024/01/06 06:24:08;;;;;;;;;;;;;;;7.86;78.57;98520.63;4326840;33;34926;-86
2024/01/06 06:26:41;;;;;;;;;;;;;;;7.65;79.83;98516.75;4339488;33;32567;-85
2024/01/06 06:29:11;;;;;;;;;;;;;;;7.63;80.13;98518.50;4339763;33;33196;-87
2024/01/06 06:31:42;;;;;;;;;;;;;;;7.82;78.34;98511.25;4338422;33;33720;-86
2024/01/06 06:34:10;;;;;;;;;;;;;;;6.98;82.42;98505.13;4338921;33;34434;-86
2024/01/06 06:36:42;;;;;;;;;;;;;;;6.94;83.57;98491.44;4331011;33;33266;-86
2024/01/06 06:39:12;;;;;;;;;;;;;;;6.34;87.19;98502.75;4334348;33;33365;-86
2024/01/06 06:41:41;;;;;;;;;;;;;;;6.27;89.08;98490.81;4336529;33;34256;-86
2024/01/06 06:44:16;;;;;;;;;;;;;;;6.31;89.99;98496.81;4331083;33;33767;-85
2024/01/06 06:46:45;;;;;;;;;;;;;;;6.77;87.02;98501.22;4332592;33;33117;-86
2024/01/06 06:49:15;;;;;;;;;;;;;;;6.24;89.20;98506.34;4340726;33;34291;-86
2024/01/06 06:51:46;;;;;;;;;;;;;;;7.04;85.77;98507.59;4336085;33;33377;-86
2024/01/06 06:54:16;;;;;;;;;;;;;;;7.33;83.24;98512.22;4329979;33;33937;-85
2024/01/06 06:56:44;;;;;;;;;;;;;;;7.18;83.52;98515.09;4326757;33;33641;-85
2024/01/06 06:59:16;;;;;;;;;;;;;;;6.95;85.67;98512.94;4327023;33;35094;-85
2024/01/06 07:01:44;;;;;;;;;;;;;;;7.22;83.73;98509.00;4339255;33;34962;-86
2024/01/06 07:04:22;;;;;;;;;;;;;;;6.15;89.96;98498.75;4346561;33;34477;-86
2024/01/06 07:06:52;;;;;;;;;;;;;;;6.15;90.68;98489.28;4316067;33;33232;-86
2024/01/06 07:09:23;;;;;;;;;;;;;;;6.87;87.46;98492.44;4328098;33;33586;-86
2024/01/06 07:11:52;;;;;;;;;;;;;;;6.53;88.24;98487.00;4326958;33;33805;-85
2024/01/06 07:14:22;;;;;;;;;;;;;;;6.57;89.21;98494.66;4326197;33;34818;-87
2024/01/06 07:16:56;;;;;;;;;;;;;;;6.12;91.40;98485.91;4342651;33;34226;-85
2024/01/06 07:19:24;;;;;;;;;;;;;;;6.31;91.62;98491.66;4327554;33;34485;-85
2024/01/06 07:21:54;;;;;;;;;;;;;;;6.12;91.60;98496.22;4339639;33;33828;-84
2024/01/06 07:24:26;;;;;;;;;;;;;;;6.29;92.25;98493.38;4326685;33;33942;-84
2024/01/06 07:26:56;;;;;;;;;;;;;;;7.15;86.70;98500.53;4337859;33;34116;-86
2024/01/06 07:29:29;;;;;;;;;;;;;;;7.22;85.75;98503.81;4332153;33;33789;-85
2024/01/06 07:31:57;;;;;;;;;;;;;;;6.76;87.94;98499.50;4328518;33;34751;-85
2024/01/06 07:34:26;;;;;;;;;;;;;;;6.70;88.27;98500.47;4327711;33;34298;-86
2024/01/06 07:36:55;;;;;;;;;;;;;;;6.95;88.61;98494.88;4337661;33;34006;-85
2024/01/06 07:39:24;;;;;;;;;;;;;;;6.39;90.46;98494.94;4338425;33;33995;-84
2024/01/06 07:41:52;;;;;;;;;;;;;;;6.41;91.45;98494.03;4330370;33;33135;-84
2024/01/06 07:44:24;;;;;;;;;;;;;;;7.15;87.71;98491.94;4333522;33;34174;-86
2024/01/06 07:46:54;;;;;;;;;;;;;;;7.55;84.71;98484.28;4338509;33;33503;-85
2024/01/06 07:49:25;;;;;;;;;;;;;;;7.35;85.77;98479.50;4338203;33;33439;-85
2024/01/06 07:51:53;;;;;;;;;;;;;;;6.87;87.68;98482.13;4322827;33;33715;-85
2024/01/06 07:54:22;;;;;;;;;;;;;;;6.81;88.74;98484.78;4331520;33;34193;-85
2024/01/06 07:56:53;;;;;;;;;;;;;;;7.25;86.30;98488.31;4336208;33;33248;-85
2024/01/06 07:59:26;;;;;;;;;;;;;;;7.56;84.71;98482.53;4332406;33;33681;-85
2024/01/06 08:01:56;;;;;;;;;;;;;;;7.45;84.17;98480.19;4312330;33;794628;-85
2024/01/06 08:04:27;;;;;;;;;;;;;;;7.46;85.82;98487.88;4332113;33;35502;-85
2024/01/06 08:06:56;;;;;;;;;;;;;;;7.69;83.77;98486.56;4335026;33;32898;-84
2024/01/06 08:09:25;;;;;;;;;;;;;;;7.86;82.82;98487.06;4333845;33;34166;-85
2024/01/06 08:11:56;;;;;;;;;;;;;;;7.51;84.80;98485.19;4337092;33;33674;-84
2024/01/06 08:14:27;;;;;;;;;;;;;;;7.36;86.17;98494.09;4336304;33;34689;-84
2024/01/06 08:16:58;;;;;;;;;;;;;;;7.60;84.37;98490.19;4335410;33;33254;-84
2024/01/06 08:19:29;;;;;;;;;;;;;;;7.08;86.52;98487.75;4332163;33;34176;-84
2024/01/06 08:21:58;;;;;;;;;;;;;;;7.69;83.51;98490.00;4327108;33;33646;-85
2024/01/06 08:24:36;;;;;;;;;;;;;;;7.96;82.09;98489.44;4341415;33;34128;-85
2024/01/06 08:27:04;;;;;;;;;;;;;;;7.60;84.16;98497.09;4331483;33;32905;-85
2024/01/06 08:29:35;;;;;;;;;;;;;;;7.96;81.96;98486.88;4339677;33;33733;-84
2024/01/06 08:32:05;;;;;;;;;;;;;;;7.47;83.98;98496.50;4339453;33;34782;-84
2024/01/06 08:34:38;;;;;;;;;;;;;;;7.80;82.66;98499.25;4337801;32;33994;-85
2024/01/06 08:37:10;;;;;;;;;;;;;;;7.70;83.07;98496.84;4337031;33;34316;-85
2024/01/06 08:39:48;;;;;;;;;;;;;;;7.63;83.24;98504.75;4333648;33;34127;-85
2024/01/06 08:42:16;;;;;;;;;;;;;;;7.47;83.36;98509.38;4332929;33;35494;-85
2024/01/06 08:44:51;;;;;;;;;;;;;;;7.69;82.44;98513.22;4331669;33;34224;-84
2024/01/06 08:47:23;;;;;;;;;;;;;;;7.49;83.93;98510.22;4339702;33;33237;-85
2024/01/06 08:49:52;;;;;;;;;;;;;;;6.61;88.31;98508.34;4331882;33;33523;-85
2024/01/06 08:52:21;;;;;;;;;;;;;;;7.02;86.25;98515.34;4325967;33;34048;-84
2024/01/06 08:54:50;;;;;;;;;;;;;;;6.62;88.54;98510.91;4326058;33;35048;-85
2024/01/06 08:57:20;;;;;;;;;;;;;;;6.42;90.07;98512.91;4327116;33;33669;-84
2024/01/06 08:59:52;;;;;;;;;;;;;;;6.67;89.90;98513.41;4341420;33;33681;-84
2024/01/06 09:02:23;;;;;;;;;;;;;;;6.66;90.61;98518.56;4333072;33;33647;-85
2024/01/06 09:04:53;;;;;;;;;;;;;;;6.67;89.90;98509.94;4342282;32;34247;-85
2024/01/06 09:07:22;;;;;;;;;;;;;;;7.06;87.36;98511.00;4329024;33;34100;-86
2024/01/06 09:09:55;;;;;;;;;;;;;;;6.75;89.04;98506.38;4325983;33;33192;-84
2024/01/06 09:12:24;;;;;;;;;;;;;;;6.84;89.82;98502.81;4342007;33;33974;-84
2024/01/06 09:14:57;;;;;;;;;;;;;;;7.00;88.23;98498.22;4339596;33;34123;-84
2024/01/06 09:17:27;;;;;;;;;;;;;;;6.74;90.08;98499.53;4336915;33;34135;-85
2024/01/06 09:19:59;;;;;;;;;;;;;;;7.34;87.65;98501.00;4330919;33;33412;-85
2024/01/06 09:22:28;;;;;;;;;;;;;;;7.01;87.82;98499.94;4332873;33;37083;-86
2024/01/06 09:24:57;;;;;;;;;;;;;;;7.36;87.05;98491.53;4331391;33;33770;-85
2024/01/06 09:27:27;;;;;;;;;;;;;;;7.44;86.31;98494.81;4330029;33;32203;-84
2024/01/06 09:30:00;;;;;;;;;;;;;;;7.57;85.00;98500.56;4327618;33;34267;-85
2024/01/06 09:32:33;;;;;;;;;;;;;;;7.07;86.23;98504.97;4335441;33;33698;-84
2024/01/06 09:35:04;;;;;;;;;;;;;;;7.64;85.81;98504.72;4333156;33;33823;-86
2024/01/06 09:37:33;;;;;;;;;;;;;;;6.72;89.48;98498.72;4331086;33;34880;-86
2024/01/06 09:40:05;;;;;;;;;;;;;;;6.59;91.08;98487.72;4348099;32;33163;-85
2024/01/06 09:42:37;;;;;;;;;;;;;;;7.20;88.51;98495.25;4323968;33;35076;-85
2024/01/06 09:45:06;;;;;;;;;;;;;;;7.90;84.45;98488.72;4331876;33;34253;-85
2024/01/06 09:47:36;;;;;;;;;;;;;;;7.55;85.04;98491.16;4329122;33;33131;-85
2024/01/06 09:50:09;;;;;;;;;;;;;;;7.59;87.05;98498.81;4331207;33;33526;-84
2024/01/06 09:52:39;;;;;;;;;;;;;;;6.91;88.78;98499.25;4324955;33;34259;-85
2024/01/06 09:55:09;;;;;;;;;;;;;;;7.94;84.02;98498.97;4333903;33;34696;-84
2024/01/06 09:57:42;;;;;;;;;;;;;;;6.99;89.32;98499.94;4342777;33;34094;-85
2024/01/06 10:00:10;;;;;;;;;;;;;;;6.57;91.10;98499.81;4336532;33;33422;-85
2024/01/06 10:02:43;;;;;;;;;;;;;;;6.77;90.47;98499.47;4331154;33;33918;-85
2024/01/06 10:05:13;;;;;;;;;;;;;;;7.18;89.46;98503.06;4332179;33;33745;-85
2024/01/06 10:07:43;;;;;;;;;;;;;;;7.29;88.09;98495.09;4335772;33;33220;-85
2024/01/06 10:10:11;;;;;;;;;;;;;;;7.17;88.07;98501.34;4341759;33;33369;-84
2024/01/06 10:12:40;;;;;;;;;;;;;;;6.77;91.98;98502.06;4336030;33;35844;-86
2024/01/06 10:15:12;;;;;;;;;;;;;;;7.05;89.49;98498.97;4327624;33;34039;-86
2024/01/06 10:17:47;;;;;;;;;;;;;;;6.95;90.68;98502.59;4332151;33;33807;-85
2024/01/06 10:20:19;;;;;;;;;;;;;;;7.17;90.03;98503.06;4341412;33;34392;-88
2024/01/06 10:22:49;;;;;;;;;;;;;;;7.73;86.42;98490.78;4335206;33;34039;-87
2024/01/06 10:25:17;;;;;;;;;;;;;;;7.92;84.67;98493.81;4328777;33;34143;-88
2024/01/06 10:30:21;;;;;;;;;;;;;;;7.41;87.41;98492.28;4329973;33;33360;-86
2024/01/06 10:32:51;;;;;;;;;;;;;;;7.70;85.74;98486.53;4336737;33;33975;-87
2024/01/06 10:35:21;;;;;;;;;;;;;;;7.30;89.77;98480.47;4333669;33;32780;-86
2024/01/06 10:37:49;;;;;;;;;;;;;;;7.28;89.39;98477.94;4332656;33;31975;-87
2024/01/06 10:40:19;;;;;;;;;;;;;;;7.20;89.40;98478.09;4333110;33;33940;-86
2024/01/06 10:42:47;;;;;;;;;;;;;;;7.58;89.36;98467.88;4339684;33;34165;-86
2024/01/06 10:45:21;;;;;;;;;;;;;;;7.58;88.87;98470.44;4332257;33;35255;-86
2024/01/06 10:47:55;;;;;;;;;;;;;;;7.70;88.09;98465.88;4334671;33;32984;-86
2024/01/06 10:50:25;;;;;;;;;;;;;;;7.95;87.46;98465.38;4331561;33;34784;-86
2024/01/06 10:52:56;;;;;;;;;;;;;;;7.51;89.04;98463.72;4335913;33;34223;-89
2024/01/06 10:55:25;;;;;;;;;;;;;;;7.39;89.42;98450.19;4336189;33;34658;-87
2024/01/06 10:57:54;;;;;;;;;;;;;;;6.88;94.37;98441.72;4335352;33;33750;-86
2024/01/06 11:00:25;;;;;;;;;;;;;;;6.93;94.14;98445.91;4334576;33;33656;-86
2024/01/06 11:02:55;;;;;;;;;;;;;;;7.01;93.82;98435.47;4332969;33;35097;-86
2024/01/06 11:05:28;;;;;;;;;;;;;;;7.37;93.15;98433.03;4339069;33;35054;-87
2024/01/06 11:08:00;;;;;;;;;;;;;;;7.55;90.95;98424.06;4330087;33;33126;-87
2024/01/06 11:10:29;;;;;;;;;;;;;;;7.48;91.04;98420.75;4342079;33;33469;-86
2024/01/06 11:13:07;;;;;;;;;;;;;;;7.35;93.12;98416.75;4339918;33;34800;-88
2024/01/06 11:15:45;;;;;;;;;;;;;;;7.79;91.19;98412.34;4341841;33;34453;-86
2024/01/06 11:18:35;;;;;;;;;;;;;;;7.97;90.66;98408.50;4344356;33;32882;-86
2024/01/06 11:21:10;;;;;;;;;;;;;;;7.81;90.47;98395.09;4340421;33;34016;-86
2024/01/06 11:23:41;;;;;;;;;;;;;;;7.72;91.40;98392.72;4335382;33;33954;-86
2024/01/06 11:26:10;;;;;;;;;;;;;;;7.39;93.03;98390.88;4333753;33;33267;-86
2024/01/06 11:28:44;;;;;;;;;;;;;;;7.74;93.16;98385.81;4333330;33;33520;-86
2024/01/06 11:31:18;;;;;;;;;;;;;;;7.47;94.83;98381.22;4330364;33;34226;-88
2024/01/06 11:33:48;;;;;;;;;;;;;;;7.45;93.18;98371.81;4343659;33;34447;-86
2024/01/06 11:36:20;;;;;;;;;;;;;;;7.41;92.91;98370.16;4340095;33;34042;-86
2024/01/06 11:38:52;;;;;;;;;;;;;;;7.28;94.67;98364.44;4342789;33;33906;-85
2024/01/06 11:41:38;;;;;;;;;;;;;;;7.41;94.04;98344.38;4326488;33;33091;-85
2024/01/06 11:44:07;;;;;;;;;;;;;;;7.14;94.89;98350.97;4332453;33;35071;-85
2024/01/06 11:46:36;;;;;;;;;;;;;;;6.94;96.78;98335.91;4344180;33;34659;-85
2024/01/06 11:49:07;;;;;;;;;;;;;;;6.96;97.30;98329.84;4342115;33;32673;-85
2024/01/06 11:51:41;;;;;;;;;;;;;;;7.00;97.46;98318.56;4340419;33;33512;-85
2024/01/06 11:54:12;;;;;;;;;;;;;;;7.30;95.80;98323.97;4339934;33;33999;-85
2024/01/06 11:56:41;;;;;;;;;;;;;;;7.14;95.96;98336.34;4346586;33;33832;-85
2024/01/06 11:59:09;;;;;;;;;;;;;;;7.85;92.65;98339.91;4342211;33;33354;-85
2024/01/06 12:01:38;;;;;;;;;;;;;;;8.21;88.13;98351.06;4342570;33;33996;-86
2024/01/06 12:04:12;;;;;;;;;;;;;;;8.27;86.94;98348.34;4340999;33;33476;-85
2024/01/06 12:06:45;;;;;;;;;;;;;;;8.07;87.66;98351.44;4345147;33;34046;-86
2024/01/06 12:09:15;;;;;;;;;;;;;;;7.18;93.54;98337.13;4342866;33;34206;-85
2024/01/06 12:11:47;;;;;;;;;;;;;;;7.50;91.99;98331.25;4326412;33;34287;-86
2024/01/06 12:14:15;;;;;;;;;;;;;;;7.17;94.25;98325.09;4325774;33;33980;-86
2024/01/06 12:16:50;;;;;;;;;;;;;;;6.92;96.41;98325.63;4330124;33;34575;-86
2024/01/06 12:19:18;;;;;;;;;;;;;;;6.78;97.71;98323.31;4331728;33;34418;-85
2024/01/06 12:21:50;;;;;;;;;;;;;;;6.60;98.37;98328.84;4327689;33;33696;-86
2024/01/06 12:24:21;;;;;;;;;;;;;;;6.62;98.67;98317.63;4326849;33;34685;-85
2024/01/06 12:26:51;;;;;;;;;;;;;;;7.20;96.47;98309.56;4327863;33;34353;-85
2024/01/06 12:29:19;;;;;;;;;;;;;;;7.29;94.08;98309.37;4339118;33;33056;-84
2024/01/06 12:31:48;;;;;;;;;;;;;;;7.18;94.29;98311.34;4346285;33;34040;-85
2024/01/06 12:34:18;;;;;;;;;;;;;;;7.41;93.36;98321.16;4333927;33;33587;-85
2024/01/06 12:36:52;;;;;;;;;;;;;;;7.61;92.44;98313.81;4326099;33;35218;-85
2024/01/06 12:39:23;;;;;;;;;;;;;;;7.75;90.34;98328.94;4327464;33;32429;-85
2024/01/06 12:41:55;;;;;;;;;;;;;;;8.17;87.10;98326.22;4331847;33;34225;-85
2024/01/06 12:44:23;;;;;;;;;;;;;;;7.91;87.19;98330.28;4326146;33;34174;-85
2024/01/06 12:46:54;;;;;;;;;;;;;;;7.69;90.33;98340.28;4335244;33;34429;-86
2024/01/06 12:49:23;;;;;;;;;;;;;;;8.12;86.84;98354.75;4341991;33;33209;-85
2024/01/06 12:51:52;;;;;;;;;;;;;;;8.52;84.17;98358.91;4341010;33;33868;-87
2024/01/06 12:54:25;;;;;;;;;;;;;;;8.27;85.32;98357.84;4346359;33;34267;-85
2024/01/06 12:56:53;;;;;;;;;;;;;;;7.94;85.99;98347.44;4340906;33;34094;-85
2024/01/06 12:59:25;;;;;;;;;;;;;;;8.00;87.09;98354.22;4327224;33;32522;-87
2024/01/06 13:01:55;;;;;;;;;;;;;;;7.66;88.12;98355.00;4340305;33;34833;-85
2024/01/06 13:04:24;;;;;;;;;;;;;;;8.22;86.08;98363.13;4345640;33;34301;-85
2024/01/06 13:06:52;;;;;;;;;;;;;;;8.20;84.93;98354.56;4336764;33;33962;-85
2024/01/06 13:09:32;;;;;;;;;;;;;;;8.31;84.37;98354.28;4336031;33;34196;-85
2024/01/06 13:12:04;;;;;;;;;;;;;;;7.58;88.52;98347.41;4340588;33;34716;-84
2024/01/06 13:14:33;;;;;;;;;;;;;;;7.75;89.16;98356.50;4329692;33;33646;-86
2024/01/06 13:17:05;;;;;;;;;;;;;;;8.03;86.33;98349.81;4327933;33;33851;-85
2024/01/06 13:19:33;;;;;;;;;;;;;;;7.59;89.75;98354.28;4331654;33;33908;-85
2024/01/06 13:22:03;;;;;;;;;;;;;;;8.47;84.33;98353.03;4328658;33;33545;-87